Time;durP1;ratioP1;P1;durP2;ratioP2;P2;SDS_P1;SDS_P2;PMS_P1;PMS_P2;Temp;Humidity;BMP_temperature;BMP_pressure;BME280_temperature;BME280_humidity;BME280_pressure;Samples;Min_cycle;Max_cycle;Signal;HPM_P1;HPM_P2
2021/10/03 00:01:24;;;;;;;16.88;7.43;;;;;;;13.74;49.38;100541.25;5049031;28;20083;-50
2021/10/03 00:03:50;;;;;;;12.43;6.72;;;;;;;13.69;49.74;100552.56;5032078;28;20029;-48
2021/10/03 00:06:18;;;;;;;14.07;7.10;;;;;;;13.56;49.70;100546.38;5049413;28;20025;-49
2021/10/03 00:08:44;;;;;;;14.98;7.03;;;;;;;13.33;49.97;100552.06;5048347;28;20025;-50
2021/10/03 00:11:10;;;;;;;13.45;7.00;;;;;;;13.55;49.94;100545.53;5048827;28;20464;-48
2021/10/03 00:13:35;;;;;;;15.38;7.03;;;;;;;13.36;50.41;100551.69;5048396;28;20032;-50
2021/10/03 00:16:01;;;;;;;15.35;7.22;;;;;;;13.36;50.35;100557.03;5049816;28;20035;-46
2021/10/03 00:18:27;;;;;;;14.70;7.05;;;;;;;13.41;50.06;100550.03;5048967;28;20028;-47
2021/10/03 00:20:53;;;;;;;16.23;7.45;;;;;;;13.14;51.21;100546.47;5049603;28;20020;-47
2021/10/03 00:23:19;;;;;;;11.43;6.85;;;;;;;13.23;50.87;100561.28;5048415;28;20025;-50
2021/10/03 00:25:45;;;;;;;13.13;7.20;;;;;;;13.30;50.59;100559.47;5049519;28;20047;-50
2021/10/03 00:28:10;;;;;;;12.90;7.18;;;;;;;13.40;50.33;100560.94;5049086;28;20074;-49
2021/10/03 00:30:37;;;;;;;13.07;7.40;;;;;;;13.43;50.16;100566.72;5048089;28;20491;-48
2021/10/03 00:33:03;;;;;;;15.65;7.35;;;;;;;13.46;50.52;100554.78;5048253;28;20076;-46
2021/10/03 00:35:28;;;;;;;14.13;7.50;;;;;;;13.22;51.07;100556.97;5049606;28;20052;-51
2021/10/03 00:37:53;;;;;;;12.40;7.20;;;;;;;13.24;50.88;100554.91;5049982;28;20457;-51
2021/10/03 00:40:19;;;;;;;15.23;7.35;;;;;;;13.24;50.76;100551.41;5049780;28;20021;-50
2021/10/03 00:42:44;;;;;;;15.95;7.75;;;;;;;13.24;50.55;100556.75;5053374;28;20021;-46
2021/10/03 00:45:11;;;;;;;15.43;7.40;;;;;;;13.19;51.10;100548.50;5035159;28;20107;-47
2021/10/03 00:47:36;;;;;;;13.68;6.88;;;;;;;13.11;50.90;100546.84;5052023;28;20043;-52
2021/10/03 00:50:03;;;;;;;14.88;6.75;;;;;;;13.09;50.55;100541.69;5052059;28;20341;-49
2021/10/03 00:52:28;;;;;;;13.75;7.07;;;;;;;13.21;50.10;100539.28;5053506;28;20079;-50
2021/10/03 00:54:54;;;;;;;13.93;7.32;;;;;;;13.22;50.57;100545.44;5053102;28;20033;-52
2021/10/03 00:57:19;;;;;;;13.38;6.70;;;;;;;13.08;50.87;100539.25;5053581;28;20048;-52
2021/10/03 00:59:45;;;;;;;11.05;7.00;;;;;;;13.04;50.64;100546.00;5053058;28;20472;-50
2021/10/03 01:02:10;;;;;;;16.45;7.45;;;;;;;13.08;50.69;100552.59;5051626;28;20353;-46
2021/10/03 01:04:36;;;;;;;13.63;6.93;;;;;;;13.15;50.46;100549.94;5053378;28;20037;-47
2021/10/03 01:07:01;;;;;;;13.20;7.80;;;;;;;13.02;50.67;100548.88;5053117;28;20059;-50
2021/10/03 01:09:27;;;;;;;13.60;6.53;;;;;;;13.23;49.52;100550.59;5053335;28;20078;-50
2021/10/03 01:11:52;;;;;;;12.30;5.55;;;;;;;12.78;50.51;100546.72;5052464;28;20032;-49
2021/10/03 01:14:18;;;;;;;10.35;4.70;;;;;;;12.45;51.14;100550.00;5053002;28;20080;-49
2021/10/03 01:16:44;;;;;;;7.15;4.72;;;;;;;12.62;50.68;100539.84;5053383;28;20511;-51
2021/10/03 01:19:10;;;;;;;9.32;4.80;;;;;;;12.73;49.68;100536.63;5053127;28;20112;-48
2021/10/03 01:21:35;;;;;;;7.72;4.22;;;;;;;12.74;49.81;100530.28;5052986;28;20044;-51
2021/10/03 01:24:01;;;;;;;10.63;4.75;;;;;;;12.74;50.08;100524.94;5052011;28;20443;-50
2021/10/03 01:26:29;;;;;;;7.57;4.40;;;;;;;12.81;49.97;100522.28;5052714;28;20102;-50
2021/10/03 01:28:56;;;;;;;9.73;4.75;;;;;;;12.77;49.98;100523.69;5052305;28;20028;-50
2021/10/03 01:31:22;;;;;;;7.28;4.80;;;;;;;12.86;49.89;100519.84;5051318;28;20031;-48
2021/10/03 01:33:48;;;;;;;9.18;4.72;;;;;;;12.96;49.73;100525.63;5052270;28;20485;-48
2021/10/03 01:36:13;;;;;;;11.50;5.07;;;;;;;12.97;49.13;100519.25;5051847;28;20032;-49
2021/10/03 01:38:39;;;;;;;8.43;4.78;;;;;;;12.89;49.91;100516.78;5051933;28;20024;-49
2021/10/03 01:41:04;;;;;;;8.82;5.18;;;;;;;12.91;49.18;100512.88;5051654;28;20020;-49
2021/10/03 01:43:30;;;;;;;10.52;5.45;;;;;;;12.85;50.08;100507.50;5051043;28;20051;-49
2021/10/03 01:45:55;;;;;;;9.30;5.38;;;;;;;12.75;50.38;100507.88;5050948;28;20029;-49
2021/10/03 01:48:22;;;;;;;9.80;6.00;;;;;;;12.77;50.48;100508.50;5051678;28;20325;-48
2021/10/03 01:50:53;;;;;;;10.68;6.20;;;;;;;12.81;50.25;100511.59;5052902;28;20487;-50
2021/10/03 01:53:24;;;;;;;9.57;6.13;;;;;;;12.74;50.84;100511.56;5052227;28;20032;-48
2021/10/03 01:55:49;;;;;;;9.68;6.43;;;;;;;12.68;51.63;100515.88;5052353;28;20420;-50
2021/10/03 01:58:16;;;;;;;12.82;6.60;;;;;;;12.44;51.40;100506.50;5053191;28;20048;-48
2021/10/03 02:00:44;;;;;;;11.23;6.50;;;;;;;12.45;52.09;100521.50;5052550;28;20020;-49
2021/10/03 02:03:09;;;;;;;11.88;6.57;;;;;;;12.58;51.20;100517.25;5052283;28;20021;-48
2021/10/03 02:05:36;;;;;;;11.63;6.65;;;;;;;12.53;51.85;100512.50;5051497;28;20377;-51
2021/10/03 02:08:02;;;;;;;9.65;6.80;;;;;;;12.63;51.66;100517.47;5051571;28;20025;-49
2021/10/03 02:10:27;;;;;;;13.10;7.10;;;;;;;12.61;51.50;100522.19;5051938;28;20381;-49
2021/10/03 02:12:53;;;;;;;16.23;7.20;;;;;;;12.29;52.75;100519.94;5051937;28;20079;-48
2021/10/03 02:15:19;;;;;;;10.77;7.28;;;;;;;12.37;52.35;100513.63;5051259;28;20029;-49
2021/10/03 02:17:45;;;;;;;13.50;7.03;;;;;;;12.20;52.62;100517.63;5051895;28;20031;-49
2021/10/03 02:20:11;;;;;;;14.35;6.80;;;;;;;12.45;51.65;100510.81;5051844;28;20025;-47
2021/10/03 02:22:37;;;;;;;12.45;7.18;;;;;;;12.54;51.86;100516.81;5049573;28;20029;-50
2021/10/03 02:25:02;;;;;;;11.20;7.10;;;;;;;12.48;51.55;100518.41;5049978;28;20443;-49
2021/10/03 02:27:28;;;;;;;17.40;7.90;;;;;;;12.49;51.32;100513.94;5050298;28;20025;-49
2021/10/03 02:29:53;;;;;;;12.80;7.30;;;;;;;12.37;51.59;100513.63;5050924;28;20041;-50
2021/10/03 02:32:20;;;;;;;10.43;7.28;;;;;;;12.48;51.97;100513.06;5051541;28;20024;-47
2021/10/03 02:34:46;;;;;;;9.02;6.80;;;;;;;12.58;51.46;100503.88;5051258;28;20024;-48
2021/10/03 02:37:11;;;;;;;11.52;7.22;;;;;;;12.56;51.90;100508.59;5051357;28;20083;-49
2021/10/03 02:39:37;;;;;;;13.32;7.10;;;;;;;12.71;51.37;100499.44;5051901;28;20017;-48
2021/10/03 02:42:02;;;;;;;11.43;6.60;;;;;;;12.52;52.03;100506.31;5051177;28;20391;-48
2021/10/03 02:44:28;;;;;;;11.38;6.68;;;;;;;12.53;51.18;100512.50;5051394;28;20447;-51
2021/10/03 02:46:53;;;;;;;12.60;7.20;;;;;;;12.44;51.53;100517.16;5051421;28;20338;-51
2021/10/03 02:49:20;;;;;;;12.15;7.07;;;;;;;12.40;51.51;100509.75;5050821;28;20044;-48
2021/10/03 02:51:46;;;;;;;12.50;6.95;;;;;;;12.57;51.09;100512.94;5050859;28;20086;-47
2021/10/03 02:54:11;;;;;;;10.15;6.72;;;;;;;12.65;50.91;100507.41;5050784;28;20044;-48
2021/10/03 02:56:37;;;;;;;13.18;6.75;;;;;;;12.55;51.11;100512.31;5050588;28;20078;-49
2021/10/03 02:59:02;;;;;;;13.25;6.60;;;;;;;12.36;51.82;100514.66;5050577;28;20640;-48
2021/10/03 03:01:28;;;;;;;11.50;6.68;;;;;;;12.54;51.51;100516.81;5050637;28;20044;-48
2021/10/03 03:03:53;;;;;;;10.30;6.43;;;;;;;12.43;51.29;100515.53;5049622;28;20036;-47
2021/10/03 03:06:19;;;;;;;9.73;7.20;;;;;;;12.42;51.73;100518.41;5050355;28;20024;-48
2021/10/03 03:08:46;;;;;;;13.75;6.97;;;;;;;12.32;51.75;100516.09;5050202;28;20461;-50
2021/10/03 03:11:11;;;;;;;13.18;7.00;;;;;;;12.39;51.88;100514.25;5050800;28;20124;-48
2021/10/03 03:13:37;;;;;;;10.40;7.22;;;;;;;12.43;51.69;100522.69;5049996;28;20039;-49
2021/10/03 03:16:03;;;;;;;12.55;7.15;;;;;;;12.00;52.10;100518.31;5049813;28;20104;-49
2021/10/03 03:18:28;;;;;;;15.55;7.00;;;;;;;12.07;52.08;100513.88;5050181;28;20029;-48
2021/10/03 03:20:54;;;;;;;12.50;6.95;;;;;;;11.76;52.49;100518.72;5049756;28;20039;-49
2021/10/03 03:23:20;;;;;;;10.95;7.00;;;;;;;11.93;52.83;100520.09;5049679;28;20044;-49
2021/10/03 03:25:45;;;;;;;10.68;6.95;;;;;;;11.81;52.97;100526.97;5050390;28;20021;-48
2021/10/03 03:28:11;;;;;;;14.25;6.55;;;;;;;11.37;54.33;100518.16;5049636;28;20472;-47
2021/10/03 03:30:37;;;;;;;11.27;7.20;;;;;;;11.62;53.11;100526.59;5049549;28;20045;-50
2021/10/03 03:33:03;;;;;;;13.43;6.90;;;;;;;11.49;53.77;100526.47;5049651;28;20020;-47
2021/10/03 03:35:28;;;;;;;12.50;7.15;;;;;;;11.35;54.10;100528.19;5049656;28;20499;-50
2021/10/03 03:37:54;;;;;;;12.35;7.40;;;;;;;11.62;53.48;100533.78;5049570;28;20104;-51
2021/10/03 03:40:19;;;;;;;14.60;7.13;;;;;;;11.47;53.45;100504.50;5050025;28;20036;-48
2021/10/03 03:42:46;;;;;;;13.63;6.88;;;;;;;11.62;53.43;100531.09;5049868;28;20029;-49
2021/10/03 03:45:11;;;;;;;12.85;7.13;;;;;;;11.64;52.93;100527.22;5049347;28;20379;-51
2021/10/03 03:47:37;;;;;;;12.18;7.00;;;;;;;11.70;53.04;100528.28;5049324;28;20445;-48
2021/10/03 03:50:03;;;;;;;10.85;6.90;;;;;;;11.67;52.95;100532.19;5049741;28;20041;-50
2021/10/03 03:52:29;;;;;;;14.48;7.07;;;;;;;11.52;53.54;100524.25;5049232;28;20440;-51
2021/10/03 03:54:54;;;;;;;10.80;6.80;;;;;;;11.28;54.00;100535.28;5049291;28;20036;-48
2021/10/03 03:57:19;;;;;;;10.02;6.65;;;;;;;11.34;53.89;100527.34;5049591;28;20511;-48
2021/10/03 03:59:45;;;;;;;9.73;6.35;;;;;;;11.35;53.51;100531.66;5049156;28;20017;-50
2021/10/03 04:02:10;;;;;;;12.98;6.80;;;;;;;11.20;54.45;100538.88;5047647;28;20340;-47
2021/10/03 04:04:36;;;;;;;11.70;6.60;;;;;;;11.30;54.60;100523.41;5050589;28;20108;-47
2021/10/03 04:07:02;;;;;;;10.48;5.93;;;;;;;11.48;53.21;100532.78;5069481;28;20025;-48
2021/10/03 04:09:27;;;;;;;12.23;6.30;;;;;;;11.48;53.82;100532.78;5069340;28;20485;-47
2021/10/03 04:11:53;;;;;;;10.95;6.20;;;;;;;11.46;53.87;100530.34;5070453;28;20029;-49
2021/10/03 04:14:18;;;;;;;9.68;5.93;;;;;;;11.64;53.60;100534.41;5058393;28;20503;-47
2021/10/03 04:16:44;;;;;;;11.35;6.10;;;;;;;11.83;52.43;100532.94;5049162;28;20432;-48
2021/10/03 04:19:09;;;;;;;9.85;6.15;;;;;;;11.91;52.17;100530.16;5050087;28;20025;-48
2021/10/03 04:21:35;;;;;;;10.98;6.40;;;;;;;11.84;52.68;100524.75;5050284;28;20025;-47
2021/10/03 04:24:00;;;;;;;8.80;6.20;;;;;;;11.91;52.90;100530.97;5049964;28;20499;-48
2021/10/03 04:26:28;;;;;;;15.88;9.10;;;;;;;12.03;52.52;100533.09;5047984;28;20358;-49
2021/10/03 04:28:53;;;;;;;25.85;15.65;;;;;;;11.87;52.83;100543.00;5049175;28;20181;-47
2021/10/03 04:31:19;;;;;;;36.22;21.88;;;;;;;11.89;52.60;100534.81;5049974;28;20024;-48
2021/10/03 04:33:44;;;;;;;115.47;56.22;;;;;;;11.89;53.00;100545.50;5049533;28;20025;-48
2021/10/03 04:36:10;;;;;;;13.52;8.57;;;;;;;11.85;52.32;100544.22;5049317;28;20021;-47
2021/10/03 04:38:36;;;;;;;10.27;6.57;;;;;;;11.84;52.78;100542.56;5049506;28;20496;-48
2021/10/03 04:41:02;;;;;;;9.98;6.15;;;;;;;11.82;53.22;100549.94;5048996;28;20021;-50
2021/10/03 04:43:27;;;;;;;10.98;6.25;;;;;;;12.08;52.04;100544.84;5048101;28;20025;-47
2021/10/03 04:45:52;;;;;;;10.35;6.18;;;;;;;12.36;51.44;100551.22;5047180;28;20025;-48
2021/10/03 04:48:18;;;;;;;15.88;6.00;;;;;;;12.64;50.81;100556.50;5048754;28;20396;-48
2021/10/03 04:50:43;;;;;;;11.00;5.57;;;;;;;12.72;50.61;100548.34;5049370;28;20021;-49
2021/10/03 04:53:09;;;;;;;10.88;5.78;;;;;;;12.91;50.09;100541.44;5049258;28;20021;-48
2021/10/03 04:55:34;;;;;;;24.25;14.98;;;;;;;12.83;50.98;100549.59;5049125;28;20106;-49
2021/10/03 04:58:00;;;;;;;52.28;31.02;;;;;;;13.29;49.66;100547.13;5049105;28;20013;-48
2021/10/03 05:00:25;;;;;;;23.92;14.32;;;;;;;13.62;48.95;100546.38;5048927;28;20021;-50
2021/10/03 05:02:51;;;;;;;17.75;9.70;;;;;;;14.03;48.27;100552.56;5048859;28;20025;-48
2021/10/03 05:05:16;;;;;;;14.80;10.23;;;;;;;14.08;48.97;100552.78;5056121;28;20024;-50
2021/10/03 05:07:42;;;;;;;10.98;6.97;;;;;;;14.05;47.77;100553.19;5069316;28;20023;-50
2021/10/03 05:10:07;;;;;;;11.95;8.43;;;;;;;14.48;47.33;100555.41;5066214;28;20021;-48
2021/10/03 05:12:33;;;;;;;11.55;7.72;;;;;;;14.82;46.32;100554.31;5049123;28;20025;-49
2021/10/03 05:14:58;;;;;;;19.20;12.05;;;;;;;15.44;45.36;100557.31;5048745;28;20052;-50
2021/10/03 05:17:24;;;;;;;13.82;8.40;;;;;;;15.81;44.19;100559.38;5048855;28;20093;-48
2021/10/03 05:19:49;;;;;;;35.35;19.40;;;;;;;16.28;43.14;100558.97;5049202;28;20036;-51
2021/10/03 05:22:15;;;;;;;16.83;10.35;;;;;;;16.59;42.48;100560.72;5047850;28;20036;-47
2021/10/03 05:24:40;;;;;;;9.65;6.00;;;;;;;16.80;40.61;100565.66;5048831;28;20025;-47
2021/10/03 05:27:06;;;;;;;10.52;6.38;;;;;;;17.00;40.99;100576.22;5048102;28;20028;-48
2021/10/03 05:29:31;;;;;;;11.85;6.50;;;;;;;17.14;40.81;100560.72;5052467;28;20052;-47
2021/10/03 05:31:57;;;;;;;10.00;6.72;;;;;;;17.48;40.56;100571.03;5052788;28;20029;-47
2021/10/03 05:34:22;;;;;;;9.20;6.30;;;;;;;17.80;39.90;100576.97;5052962;28;20024;-49
2021/10/03 05:36:47;;;;;;;19.85;13.18;;;;;;;18.31;38.57;100574.72;5052120;28;20024;-49
2021/10/03 05:39:13;;;;;;;25.17;15.85;;;;;;;18.24;38.08;100572.16;5052416;28;20088;-47
2021/10/03 05:41:38;;;;;;;8.95;6.25;;;;;;;18.61;37.25;100573.75;5052057;28;20033;-48
2021/10/03 05:44:04;;;;;;;7.75;5.05;;;;;;;19.14;35.89;100578.13;5051498;28;20649;-49
2021/10/03 05:46:30;;;;;;;10.57;5.22;;;;;;;19.29;35.37;100572.22;5050467;28;20021;-51
2021/10/03 05:48:56;;;;;;;10.80;5.30;;;;;;;19.66;35.05;100575.28;5051441;28;20480;-50
2021/10/03 05:51:21;;;;;;;7.45;5.00;;;;;;;20.05;34.50;100575.44;5051467;28;20024;-49
2021/10/03 05:53:47;;;;;;;10.63;5.20;;;;;;;19.62;35.03;100571.44;5051230;28;20418;-50
2021/10/03 05:56:12;;;;;;;9.63;4.88;;;;;;;19.80;35.02;100570.44;5050964;28;20021;-47
2021/10/03 05:58:38;;;;;;;8.77;5.32;;;;;;;19.75;35.00;100580.34;5049946;28;20033;-46
2021/10/03 06:01:03;;;;;;;7.72;4.60;;;;;;;20.34;34.18;100583.44;5050695;28;20024;-48
2021/10/03 06:03:29;;;;;;;9.52;5.35;;;;;;;20.54;33.06;100579.38;5050568;28;20039;-50
2021/10/03 06:05:54;;;;;;;7.55;4.82;;;;;;;21.05;32.28;100578.19;5050554;28;20021;-48
2021/10/03 06:08:20;;;;;;;7.78;4.85;;;;;;;21.29;32.03;100583.31;5051010;28;20511;-48
2021/10/03 06:10:45;;;;;;;9.60;4.90;;;;;;;21.24;32.15;100585.97;5051475;28;20025;-48
2021/10/03 06:13:11;;;;;;;7.45;5.00;;;;;;;21.59;31.97;100587.44;5051783;28;20032;-47
2021/10/03 06:15:39;;;;;;;7.85;4.88;;;;;;;20.81;32.13;100585.75;5033010;28;20025;-47
2021/10/03 06:18:05;;;;;;;9.50;6.22;;;;;;;21.42;31.42;100591.03;5050212;28;20044;-48
2021/10/03 06:20:31;;;;;;;9.85;5.20;;;;;;;21.43;31.05;100595.38;5050989;28;20329;-46
2021/10/03 06:22:56;;;;;;;7.72;5.20;;;;;;;22.19;30.29;100599.06;5050983;28;20118;-49
2021/10/03 06:25:22;;;;;;;7.32;4.97;;;;;;;22.48;30.00;100585.19;5050645;28;20546;-50
2021/10/03 06:27:48;;;;;;;7.03;4.60;;;;;;;22.77;29.75;100594.56;5050395;28;20361;-47
2021/10/03 06:30:13;;;;;;;7.28;5.22;;;;;;;22.87;29.42;100593.00;5049810;28;20037;-47
2021/10/03 06:32:39;;;;;;;9.25;5.30;;;;;;;23.52;28.54;100598.91;5050759;28;20033;-49
2021/10/03 06:35:05;;;;;;;8.82;5.07;;;;;;;23.92;27.54;100600.06;5050704;28;20534;-38
2021/10/03 06:37:30;;;;;;;7.35;4.57;;;;;;;23.64;28.08;100602.19;5050533;28;20021;-38
2021/10/03 06:39:56;;;;;;;6.78;4.43;;;;;;;23.88;27.96;100604.41;5049127;28;20021;-37
2021/10/03 06:42:21;;;;;;;8.95;4.70;;;;;;;24.22;27.40;100599.22;5050459;28;20032;-37
2021/10/03 06:44:47;;;;;;;6.45;4.13;;;;;;;24.52;26.92;100594.84;5049911;28;20481;-37
2021/10/03 06:47:12;;;;;;;7.15;4.50;;;;;;;24.82;26.70;100590.41;5049417;28;20043;-37
2021/10/03 06:49:38;;;;;;;11.68;6.57;;;;;;;24.86;26.82;100600.44;5049676;28;20021;-49
2021/10/03 06:52:04;;;;;;;6.65;4.85;;;;;;;25.02;26.59;100587.59;5049060;28;20032;-48
2021/10/03 06:54:30;;;;;;;6.35;4.53;;;;;;;25.21;26.40;100593.22;5049306;28;20083;-47
2021/10/03 06:56:55;;;;;;;10.40;4.10;;;;;;;25.41;26.15;100595.03;5049773;28;20052;-48
2021/10/03 06:59:21;;;;;;;8.48;4.40;;;;;;;25.48;26.02;100594.72;5047607;28;20028;-48
2021/10/03 07:01:47;;;;;;;6.30;4.30;;;;;;;25.66;25.71;100598.69;5050229;28;20037;-47
2021/10/03 07:04:12;;;;;;;6.38;3.95;;;;;;;25.88;25.62;100601.78;5049977;28;20480;-49
2021/10/03 07:06:38;;;;;;;5.25;3.90;;;;;;;26.22;24.98;100613.81;5066290;28;20031;-49
2021/10/03 07:09:03;;;;;;;10.07;5.50;;;;;;;26.21;25.28;100612.97;5065834;28;20024;-49
2021/10/03 07:11:29;;;;;;;7.05;3.90;;;;;;;26.23;25.19;100604.50;5049434;28;20480;-48
2021/10/03 07:13:54;;;;;;;7.70;3.90;;;;;;;26.00;25.56;100608.81;5049820;28;20029;-50
2021/10/03 07:16:20;;;;;;;7.55;3.72;;;;;;;26.32;25.00;100600.88;5049565;28;20381;-50
2021/10/03 07:18:45;;;;;;;5.78;3.50;;;;;;;26.55;24.80;100594.91;5044033;28;20233;-48
2021/10/03 07:21:11;;;;;;;6.43;3.60;;;;;;;26.74;24.63;100595.81;5049064;28;20025;-50
2021/10/03 07:23:37;;;;;;;6.72;3.60;;;;;;;26.95;24.39;100587.38;5049866;28;20117;-37
2021/10/03 07:26:02;;;;;;;9.95;4.10;;;;;;;26.88;27.26;100579.53;5049948;28;20082;-37
2021/10/03 07:28:28;;;;;;;6.90;4.18;;;;;;;27.25;23.89;100581.53;5049746;28;20033;-37
2021/10/03 07:30:54;;;;;;;8.40;4.00;;;;;;;26.96;24.54;100583.53;5050238;28;20048;-37
2021/10/03 07:33:19;;;;;;;8.98;4.05;;;;;;;26.57;24.23;100576.34;5048717;28;20040;-37
2021/10/03 07:35:46;;;;;;;9.52;4.00;;;;;;;26.61;24.23;100582.88;5049704;28;20021;-37
2021/10/03 07:38:11;;;;;;;8.43;3.58;;;;;;;25.78;25.83;100592.88;5050186;28;20028;-37
2021/10/03 07:40:37;;;;;;;6.93;3.90;;;;;;;26.48;25.24;100587.06;5031503;28;20017;-39
2021/10/03 07:43:02;;;;;;;4.53;3.75;;;;;;;26.53;24.84;100589.75;5049063;28;20052;-38
2021/10/03 07:45:27;;;;;;;4.70;3.55;;;;;;;26.69;24.83;100593.97;5049087;28;20033;-39
2021/10/03 07:47:53;;;;;;;6.07;3.60;;;;;;;26.63;25.81;100592.38;5049497;28;20400;-36
2021/10/03 07:50:18;;;;;;;7.05;3.80;;;;;;;27.37;23.84;100588.47;5049105;28;20029;-37
2021/10/03 07:52:44;;;;;;;5.63;3.70;;;;;;;26.98;24.45;100584.03;5049135;28;20028;-37
2021/10/03 07:55:09;;;;;;;5.40;3.60;;;;;;;27.36;25.19;100593.13;5048133;28;20032;-39
2021/10/03 07:57:35;;;;;;;8.65;3.75;;;;;;;27.97;23.50;100585.91;5043390;28;20412;-37
2021/10/03 08:00:01;;;;;;;15.30;5.18;;;;;;;28.05;23.69;100590.69;5048391;28;20024;-37
2021/10/03 08:02:26;;;;;;;8.85;4.13;;;;;;;28.13;22.78;100591.13;5049108;28;20029;-37
2021/10/03 08:04:52;;;;;;;5.00;3.58;;;;;;;28.18;23.33;100596.47;5049294;28;20032;-39
2021/10/03 08:07:17;;;;;;;8.15;5.07;;;;;;;28.07;23.69;100591.19;5049194;28;20447;-49
2021/10/03 08:09:43;;;;;;;4.70;3.58;;;;;;;28.46;22.61;100583.66;5049455;28;20098;-49
2021/10/03 08:12:08;;;;;;;5.88;3.70;;;;;;;28.24;22.95;100576.94;5048989;28;20542;-47
2021/10/03 08:14:34;;;;;;;7.68;3.60;;;;;;;27.57;23.41;100577.25;5049306;28;20051;-47
2021/10/03 08:16:59;;;;;;;17.20;11.55;;;;;;;26.84;24.39;100579.31;5048615;28;20349;-50
2021/10/03 08:19:25;;;;;;;7.30;3.78;;;;;;;26.89;24.44;100575.72;5048219;28;20035;-51
2021/10/03 08:21:50;;;;;;;5.95;4.20;;;;;;;26.68;25.49;100564.22;5048482;28;20025;-50
2021/10/03 08:24:16;;;;;;;7.68;4.10;;;;;;;26.60;25.27;100570.31;5048528;28;20028;-47
2021/10/03 08:26:41;;;;;;;5.45;3.65;;;;;;;26.55;25.68;100573.09;5045647;28;20033;-47
2021/10/03 08:29:07;;;;;;;5.20;3.42;;;;;;;26.64;24.42;100566.72;5043670;28;20158;-47
2021/10/03 08:31:32;;;;;;;6.05;3.90;;;;;;;25.90;25.74;100576.97;5049079;28;20071;-47
2021/10/03 08:33:58;;;;;;;8.32;3.80;;;;;;;26.65;25.52;100567.53;5049098;28;20083;-47
2021/10/03 08:36:24;;;;;;;6.63;3.80;;;;;;;27.13;24.41;100561.19;5048906;28;20020;-47
2021/10/03 08:38:52;;;;;;;10.90;3.92;;;;;;;27.69;24.29;100565.84;5048986;28;20535;-49
2021/10/03 08:41:18;;;;;;;7.15;3.70;;;;;;;27.53;23.36;100569.91;5048140;28;20448;-47
2021/10/03 08:43:44;;;;;;;4.85;3.70;;;;;;;27.22;23.79;100562.16;5046633;28;20029;-48
2021/10/03 08:46:09;;;;;;;7.07;3.50;;;;;;;27.40;23.62;100557.84;5046208;28;20025;-48
2021/10/03 08:48:35;;;;;;;8.48;3.35;;;;;;;27.60;23.48;100568.44;5030623;28;20028;-50
2021/10/03 08:51:00;;;;;;;4.93;3.60;;;;;;;27.43;24.06;100565.41;5046813;28;20021;-48
2021/10/03 08:53:26;;;;;;;6.65;3.58;;;;;;;27.47;24.63;100564.56;5048473;28;20040;-47
2021/10/03 08:55:56;;;;;;;4.70;3.80;;;;;;;28.09;27.71;100566.28;5048247;28;20044;-50
2021/10/03 08:58:22;;;;;;;7.18;3.80;;;;;;;28.02;28.58;100569.41;5047316;28;20334;-51
2021/10/03 09:00:48;;;;;;;9.35;3.70;;;;;;;26.96;24.05;100557.06;5043634;28;20099;-50
2021/10/03 09:03:15;;;;;;;5.88;4.00;;;;;;;27.45;23.82;100558.53;5050308;28;20108;-51
2021/10/03 09:05:48;;;;;;;4.95;3.63;;;;;;;27.42;23.55;100550.16;5053052;28;20185;-48
2021/10/03 09:08:38;;;;;;;5.95;3.65;;;;;;;28.08;23.52;100556.44;5049177;28;20025;-52
2021/10/03 09:11:08;;;;;;;5.75;3.45;;;;;;;28.41;23.22;100546.25;5064741;28;20345;-47
2021/10/03 09:13:33;;;;;;;5.45;3.25;;;;;;;28.28;23.15;100544.31;5050842;28;20044;-49
2021/10/03 09:16:21;;;;;;;9.55;3.53;;;;;;;28.66;23.03;100544.16;5051417;28;20158;-47
2021/10/03 09:19:10;;;;;;;5.28;3.50;;;;;;;29.05;22.45;100542.75;5051798;28;20028;-50
2021/10/03 09:21:42;;;;;;;5.28;3.65;;;;;;;28.04;22.93;100526.13;5049808;28;20171;-48
2021/10/03 09:24:11;;;;;;;5.43;3.70;;;;;;;28.11;23.16;100533.16;5047384;28;20464;-47
2021/10/03 09:26:37;;;;;;;6.07;3.60;;;;;;;28.44;23.37;100531.97;5051264;28;20017;-48
2021/10/03 09:29:25;;;;;;;5.82;4.13;;;;;;;28.06;23.19;100534.06;5051133;28;20037;-50
2021/10/03 09:32:13;;;;;;;5.57;3.65;;;;;;;27.72;23.07;100539.81;5051362;28;20028;-47
2021/10/03 09:34:46;;;;;;;6.50;3.78;;;;;;;27.05;24.72;100536.16;5053905;28;20027;-48
2021/10/03 09:37:25;;;;;;;8.73;3.50;;;;;;;26.30;24.99;100525.88;5056531;28;20056;-48
2021/10/03 09:40:00;;;;;;;5.78;3.28;;;;;;;27.23;24.48;100523.63;5052066;28;20100;-48
2021/10/03 09:42:25;;;;;;;7.03;3.85;;;;;;;27.65;23.34;100523.81;5050893;28;20095;-47
2021/10/03 09:45:13;;;;;;;7.82;3.30;;;;;;;28.01;23.56;100510.34;5039412;28;20048;-50
2021/10/03 09:47:39;;;;;;;10.25;3.25;;;;;;;28.06;23.04;100514.91;5059306;28;20479;-50
2021/10/03 09:50:06;;;;;;;5.43;3.30;;;;;;;28.30;23.00;100509.25;5059195;28;20020;-48
2021/10/03 09:52:32;;;;;;;4.35;3.50;;;;;;;27.80;22.48;100507.16;5058848;28;20078;-49
2021/10/03 09:54:57;;;;;;;8.88;3.70;;;;;;;27.19;22.98;100502.63;5051981;28;20025;-47
2021/10/03 09:57:23;;;;;;;6.68;3.28;;;;;;;26.49;23.73;100495.94;5035626;28;20017;-49
2021/10/03 09:59:48;;;;;;;7.97;4.43;;;;;;;26.43;23.89;100492.44;5053930;28;20036;-49
2021/10/03 10:02:14;;;;;;;4.50;3.30;;;;;;;26.16;24.01;100497.66;5058062;28;20032;-50
2021/10/03 10:04:39;;;;;;;7.75;3.45;;;;;;;25.22;25.37;100494.06;5031561;28;20033;-50
2021/10/03 10:07:05;;;;;;;6.18;3.33;;;;;;;24.71;26.31;100494.38;5059814;28;20025;-48
2021/10/03 10:09:30;;;;;;;7.75;3.92;;;;;;;24.75;25.98;100487.28;5056647;28;20016;-47
2021/10/03 10:12:16;;;;;;;5.10;3.42;;;;;;;25.64;26.22;100481.78;5023274;28;20206;-47
2021/10/03 10:14:43;;;;;;;6.68;3.70;;;;;;;25.82;25.02;100477.53;5049320;28;20029;-48
2021/10/03 10:17:29;;;;;;;8.63;3.90;;;;;;;25.17;25.48;100483.25;5048021;28;20025;-47
2021/10/03 10:19:55;;;;;;;7.15;4.00;;;;;;;25.76;25.57;100467.78;5049910;28;20039;-49
2021/10/03 10:22:35;;;;;;;8.93;3.70;;;;;;;26.11;24.47;100474.00;5049362;28;20025;-48
2021/10/03 10:25:00;;;;;;;6.00;3.80;;;;;;;26.26;25.07;100476.56;5051257;28;20035;-49
2021/10/03 10:27:28;;;;;;;7.60;4.25;;;;;;;25.74;24.66;100469.97;5051731;28;20025;-49
2021/10/03 10:29:53;;;;;;;9.20;5.38;;;;;;;25.03;25.53;100465.91;5051254;28;20471;-48
2021/10/03 10:32:22;;;;;;;8.90;4.95;;;;;;;24.92;26.14;100460.53;5051705;28;20029;-48
2021/10/03 10:35:09;;;;;;;10.20;6.57;;;;;;;24.92;26.13;100459.69;5051462;28;20405;-48
2021/10/03 10:37:50;;;;;;;11.85;8.00;;;;;;;24.51;26.59;100454.47;5051551;28;20020;-51
2021/10/03 10:40:22;;;;;;;11.68;7.70;;;;;;;25.34;26.51;100451.00;5051649;28;20393;-50
2021/10/03 10:42:51;;;;;;;15.30;9.30;;;;;;;25.93;25.51;100440.94;5051614;28;20028;-48
2021/10/03 10:45:33;;;;;;;15.98;10.07;;;;;;;25.69;25.42;100438.13;5050827;28;20140;-49
2021/10/03 10:48:13;;;;;;;14.23;11.40;;;;;;;25.42;25.32;100433.22;5049767;28;20024;-49
2021/10/03 10:50:48;;;;;;;21.15;15.70;;;;;;;24.51;26.27;100438.97;5051092;28;20028;-47
2021/10/03 10:53:20;;;;;;;20.38;14.45;;;;;;;24.50;26.93;100423.72;5051739;28;20017;-48
2021/10/03 10:56:00;;;;;;;23.17;16.60;;;;;;;24.48;26.76;100425.09;5050359;28;20093;-49
2021/10/03 10:58:26;;;;;;;21.65;16.35;;;;;;;25.04;26.18;100421.25;5051180;28;20025;-49
2021/10/03 11:00:58;;;;;;;12.27;7.82;;;;;;;24.31;26.17;100420.81;5051239;28;20544;-50
2021/10/03 11:03:42;;;;;;;9.43;6.20;;;;;;;24.09;26.41;100420.38;5049939;28;20043;-47
2021/10/03 11:06:27;;;;;;;8.48;5.03;;;;;;;24.31;24.76;100409.13;5043520;28;20024;-48
2021/10/03 11:09:04;;;;;;;6.70;4.05;;;;;;;24.28;25.56;100412.41;5046164;28;20071;-47
2021/10/03 11:11:39;;;;;;;6.60;4.07;;;;;;;24.68;24.54;100410.59;5050711;28;20052;-48
2021/10/03 11:14:04;;;;;;;5.97;3.85;;;;;;;25.01;23.82;100410.91;5035315;28;20021;-48
2021/10/03 11:16:32;;;;;;;5.93;3.20;;;;;;;24.35;24.98;100397.41;5050349;28;20024;-47
2021/10/03 11:19:04;;;;;;;6.03;2.90;;;;;;;24.31;25.01;100403.69;5050866;28;20029;-47
2021/10/03 11:21:34;;;;;;;8.18;5.05;;;;;;;24.28;24.87;100396.09;5050901;28;20017;-46